sensor_id;sensor_type;location;lat;lon;timestamp;pressure;altitude;pressure_sealevel;temperature;humidity
59829;BME280;45708;51.848;107.620;2023-04-25T00:02:51;94513.03;;;5.74;22.90
59829;BME280;45708;51.848;107.620;2023-04-25T00:07:52;94486.81;;;5.74;22.83
59829;BME280;45708;51.848;107.620;2023-04-25T00:12:53;94492.66;;;6.09;23.26
59829;BME280;45708;51.848;107.620;2023-04-25T00:17:53;94480.59;;;6.91;21.11
59829;BME280;45708;51.848;107.620;2023-04-25T00:22:55;94467.50;;;5.48;21.93
59829;BME280;45708;51.848;107.620;2023-04-25T00:27:56;94470.28;;;5.93;21.86
59829;BME280;45708;51.848;107.620;2023-04-25T00:32:56;94447.44;;;6.65;21.05
59829;BME280;45708;51.848;107.620;2023-04-25T00:37:57;94453.00;;;8.24;19.56
59829;BME280;45708;51.848;107.620;2023-04-25T00:42:58;94433.34;;;8.45;19.48
59829;BME280;45708;51.848;107.620;2023-04-25T00:47:59;94441.81;;;8.29;19.64
59829;BME280;45708;51.848;107.620;2023-04-25T00:53:00;94429.25;;;8.13;18.95
59829;BME280;45708;51.848;107.620;2023-04-25T00:58:01;94405.13;;;8.94;19.00
59829;BME280;45708;51.848;107.620;2023-04-25T01:03:03;94407.81;;;8.64;18.59
59829;BME280;45708;51.848;107.620;2023-04-25T01:08:04;94390.06;;;9.13;18.22
59829;BME280;45708;51.848;107.620;2023-04-25T01:13:05;94388.34;;;10.12;17.30
59829;BME280;45708;51.848;107.620;2023-04-25T01:18:06;94372.28;;;12.22;16.35
59829;BME280;45708;51.848;107.620;2023-04-25T01:23:07;94358.84;;;12.06;15.29
59829;BME280;45708;51.848;107.620;2023-04-25T01:28:09;94352.19;;;11.82;15.79
59829;BME280;45708;51.848;107.620;2023-04-25T01:33:10;94353.00;;;11.82;15.43
59829;BME280;45708;51.848;107.620;2023-04-25T01:38:12;94339.03;;;12.31;16.17
59829;BME280;45708;51.848;107.620;2023-04-25T01:43:13;94322.03;;;12.27;15.31
59829;BME280;45708;51.848;107.620;2023-04-25T01:48:14;94312.53;;;11.48;16.18
59829;BME280;45708;51.848;107.620;2023-04-25T01:53:15;94303.16;;;11.41;16.06
59829;BME280;45708;51.848;107.620;2023-04-25T01:58:16;94296.78;;;10.86;15.77
59829;BME280;45708;51.848;107.620;2023-04-25T02:03:17;94283.25;;;11.55;15.77
59829;BME280;45708;51.848;107.620;2023-04-25T02:08:18;94277.38;;;12.62;15.00
59829;BME280;45708;51.848;107.620;2023-04-25T02:13:18;94256.84;;;12.79;14.86
59829;BME280;45708;51.848;107.620;2023-04-25T02:18:19;94227.47;;;13.18;14.94
59829;BME280;45708;51.848;107.620;2023-04-25T02:23:20;94235.38;;;13.13;15.03
59829;BME280;45708;51.848;107.620;2023-04-25T02:28:21;94223.28;;;13.22;15.11
59829;BME280;45708;51.848;107.620;2023-04-25T02:33:21;94215.69;;;13.04;15.60
59829;BME280;45708;51.848;107.620;2023-04-25T02:38:22;94209.81;;;12.06;16.60
59829;BME280;45708;51.848;107.620;2023-04-25T02:43:23;94207.09;;;10.01;16.91
59829;BME280;45708;51.848;107.620;2023-04-25T02:48:24;94204.03;;;9.24;18.01
59829;BME280;45708;51.848;107.620;2023-04-25T02:53:24;94185.56;;;8.30;18.31
59829;BME280;45708;51.848;107.620;2023-04-25T02:58:25;94166.19;;;8.13;18.82
59829;BME280;45708;51.848;107.620;2023-04-25T03:03:26;94164.59;;;7.70;19.53
59829;BME280;45708;51.848;107.620;2023-04-25T03:08:27;94150.81;;;7.86;19.32
59829;BME280;45708;51.848;107.620;2023-04-25T03:13:28;94142.00;;;8.34;19.86
59829;BME280;45708;51.848;107.620;2023-04-25T03:18:28;94124.38;;;8.70;19.42
59829;BME280;45708;51.848;107.620;2023-04-25T03:23:29;94108.28;;;9.06;19.35
59829;BME280;45708;51.848;107.620;2023-04-25T03:28:30;94094.00;;;9.31;19.20
59829;BME280;45708;51.848;107.620;2023-04-25T03:33:31;94088.72;;;9.31;19.25
59829;BME280;45708;51.848;107.620;2023-04-25T03:38:32;94082.50;;;9.37;19.52
59829;BME280;45708;51.848;107.620;2023-04-25T03:43:33;94066.50;;;9.55;19.54
59829;BME280;45708;51.848;107.620;2023-04-25T03:48:33;94060.06;;;9.63;20.01
59829;BME280;45708;51.848;107.620;2023-04-25T03:53:34;94034.78;;;10.17;20.10
59829;BME280;45708;51.848;107.620;2023-04-25T03:58:35;94030.53;;;10.50;19.92
59829;BME280;45708;51.848;107.620;2023-04-25T04:03:36;94022.75;;;11.04;19.48
59829;BME280;45708;51.848;107.620;2023-04-25T04:08:37;94004.50;;;11.29;18.75
59829;BME280;45708;51.848;107.620;2023-04-25T04:13:39;94003.72;;;11.61;18.89
59829;BME280;45708;51.848;107.620;2023-04-25T04:18:40;93998.09;;;11.79;19.01
59829;BME280;45708;51.848;107.620;2023-04-25T04:23:40;93977.09;;;11.99;19.03
59829;BME280;45708;51.848;107.620;2023-04-25T04:28:42;93976.88;;;12.06;18.62
59829;BME280;45708;51.848;107.620;2023-04-25T04:33:43;93966.72;;;12.35;19.09
59829;BME280;45708;51.848;107.620;2023-04-25T04:38:44;93953.03;;;12.53;18.63
59829;BME280;45708;51.848;107.620;2023-04-25T04:43:45;93923.94;;;12.63;18.62
59829;BME280;45708;51.848;107.620;2023-04-25T04:48:46;93913.75;;;12.35;19.10
59829;BME280;45708;51.848;107.620;2023-04-25T04:53:46;93905.47;;;12.99;18.37
59829;BME280;45708;51.848;107.620;2023-04-25T04:58:47;93893.91;;;13.30;18.33
59829;BME280;45708;51.848;107.620;2023-04-25T05:03:48;93886.47;;;13.58;18.31
59829;BME280;45708;51.848;107.620;2023-04-25T05:08:49;93869.19;;;13.81;17.96
59829;BME280;45708;51.848;107.620;2023-04-25T05:13:52;93860.91;;;14.08;17.68
59829;BME280;45708;51.848;107.620;2023-04-25T05:18:53;93848.22;;;13.74;17.66
59829;BME280;45708;51.848;107.620;2023-04-25T05:23:54;93826.69;;;13.91;17.68
59829;BME280;45708;51.848;107.620;2023-04-25T05:28:55;93822.69;;;14.04;17.69
59829;BME280;45708;51.848;107.620;2023-04-25T05:33:55;93772.41;;;13.43;17.93
59829;BME280;45708;51.848;107.620;2023-04-25T05:38:56;93805.22;;;13.87;17.76
59829;BME280;45708;51.848;107.620;2023-04-25T05:43:57;93808.88;;;13.96;17.96
59829;BME280;45708;51.848;107.620;2023-04-25T05:48:58;93794.22;;;14.14;17.67
59829;BME280;45708;51.848;107.620;2023-04-25T05:53:59;93775.41;;;14.06;17.65
59829;BME280;45708;51.848;107.620;2023-04-25T05:58:59;93764.69;;;14.26;17.85
59829;BME280;45708;51.848;107.620;2023-04-25T06:04:00;93748.41;;;14.38;17.81
59829;BME280;45708;51.848;107.620;2023-04-25T06:09:01;93744.53;;;14.25;17.84
59829;BME280;45708;51.848;107.620;2023-04-25T06:14:02;93732.22;;;14.44;17.79
59829;BME280;45708;51.848;107.620;2023-04-25T06:19:03;93722.25;;;14.60;17.82
59829;BME280;45708;51.848;107.620;2023-04-25T06:24:04;93696.81;;;14.54;17.68
59829;BME280;45708;51.848;107.620;2023-04-25T06:29:05;93694.59;;;14.66;17.92
59829;BME280;45708;51.848;107.620;2023-04-25T06:34:05;93685.06;;;14.60;17.56
59829;BME280;45708;51.848;107.620;2023-04-25T06:39:06;93657.06;;;14.73;17.87
59829;BME280;45708;51.848;107.620;2023-04-25T06:44:07;93660.75;;;14.77;17.63
59829;BME280;45708;51.848;107.620;2023-04-25T06:49:08;93656.03;;;14.69;17.91
59829;BME280;45708;51.848;107.620;2023-04-25T06:54:08;93639.66;;;14.56;17.20
59829;BME280;45708;51.848;107.620;2023-04-25T06:59:09;93641.59;;;14.46;17.27
59829;BME280;45708;51.848;107.620;2023-04-25T07:04:10;93635.84;;;14.28;17.29
59829;BME280;45708;51.848;107.620;2023-04-25T07:09:11;93624.59;;;14.08;17.50
59829;BME280;45708;51.848;107.620;2023-04-25T07:14:12;93617.97;;;14.05;17.75
59829;BME280;45708;51.848;107.620;2023-04-25T07:19:13;93624.69;;;14.31;17.80
59829;BME280;45708;51.848;107.620;2023-04-25T07:24:13;93614.16;;;14.55;17.78
59829;BME280;45708;51.848;107.620;2023-04-25T07:29:14;93579.25;;;15.15;17.09
59829;BME280;45708;51.848;107.620;2023-04-25T07:34:15;93594.97;;;15.59;17.34
59829;BME280;45708;51.848;107.620;2023-04-25T07:39:16;93572.69;;;15.93;16.78
59829;BME280;45708;51.848;107.620;2023-04-25T07:44:16;93564.69;;;16.77;16.72
59829;BME280;45708;51.848;107.620;2023-04-25T07:49:17;93570.84;;;16.45;16.58
59829;BME280;45708;51.848;107.620;2023-04-25T07:54:18;93556.50;;;16.40;16.53
59829;BME280;45708;51.848;107.620;2023-04-25T07:59:19;93535.00;;;16.51;16.08
59829;BME280;45708;51.848;107.620;2023-04-25T08:04:20;93544.03;;;16.22;16.36
59829;BME280;45708;51.848;107.620;2023-04-25T08:09:21;93533.31;;;16.08;16.54
59829;BME280;45708;51.848;107.620;2023-04-25T08:14:22;93538.00;;;15.98;16.84
59829;BME280;45708;51.848;107.620;2023-04-25T08:19:23;93527.78;;;16.05;16.69
59829;BME280;45708;51.848;107.620;2023-04-25T08:24:23;93520.69;;;15.39;17.19
59829;BME280;45708;51.848;107.620;2023-04-25T08:29:24;93510.69;;;15.12;17.31
59829;BME280;45708;51.848;107.620;2023-04-25T08:34:25;93503.63;;;15.02;17.35
59829;BME280;45708;51.848;107.620;2023-04-25T08:39:26;93502.72;;;15.31;17.02
59829;BME280;45708;51.848;107.620;2023-04-25T08:44:27;93496.47;;;15.40;17.14
59829;BME280;45708;51.848;107.620;2023-04-25T08:49:29;93498.84;;;15.23;17.45
59829;BME280;45708;51.848;107.620;2023-04-25T08:54:31;93484.22;;;15.20;17.60
59829;BME280;45708;51.848;107.620;2023-04-25T08:59:34;93477.63;;;15.18;17.62
59829;BME280;45708;51.848;107.620;2023-04-25T09:04:35;93483.72;;;15.18;17.45
59829;BME280;45708;51.848;107.620;2023-04-25T09:09:36;93470.75;;;14.93;17.58
59829;BME280;45708;51.848;107.620;2023-04-25T09:14:37;93479.94;;;14.82;17.64
59829;BME280;45708;51.848;107.620;2023-04-25T09:19:39;93466.47;;;14.73;17.38
59829;BME280;45708;51.848;107.620;2023-04-25T09:24:44;93474.38;;;15.02;17.29
59829;BME280;45708;51.848;107.620;2023-04-25T09:29:45;93465.69;;;15.15;17.08
59829;BME280;45708;51.848;107.620;2023-04-25T09:34:50;93471.00;;;15.15;17.04
59829;BME280;45708;51.848;107.620;2023-04-25T09:39:54;93454.84;;;15.31;17.02
59829;BME280;45708;51.848;107.620;2023-04-25T09:44:56;93455.53;;;15.55;16.45
59829;BME280;45708;51.848;107.620;2023-04-25T09:49:57;93458.91;;;15.79;16.32
59829;BME280;45708;51.848;107.620;2023-04-25T09:54:59;93463.75;;;15.77;16.16
59829;BME280;45708;51.848;107.620;2023-04-25T10:00:00;93452.84;;;15.60;16.18
59829;BME280;45708;51.848;107.620;2023-04-25T10:05:02;93456.44;;;15.69;16.62
59829;BME280;45708;51.848;107.620;2023-04-25T10:10:06;93454.84;;;15.68;16.15
59829;BME280;45708;51.848;107.620;2023-04-25T10:15:08;93448.53;;;15.64;16.12
59829;BME280;45708;51.848;107.620;2023-04-25T10:20:09;93440.84;;;15.63;16.37
59829;BME280;45708;51.848;107.620;2023-04-25T10:25:10;93448.03;;;15.62;16.22
59829;BME280;45708;51.848;107.620;2023-04-25T10:30:14;93458.41;;;15.40;16.60
59829;BME280;45708;51.848;107.620;2023-04-25T10:35:19;93462.91;;;15.26;16.29
59829;BME280;45708;51.848;107.620;2023-04-25T10:40:24;93449.28;;;15.08;16.79
59829;BME280;45708;51.848;107.620;2023-04-25T10:45:25;93453.50;;;14.90;16.83
59829;BME280;45708;51.848;107.620;2023-04-25T10:50:37;93443.50;;;14.58;16.89
59829;BME280;45708;51.848;107.620;2023-04-25T10:55:50;93457.13;;;14.28;16.96
59829;BME280;45708;51.848;107.620;2023-04-25T11:00:51;93448.41;;;13.93;17.36
59829;BME280;45708;51.848;107.620;2023-04-25T11:05:53;93463.47;;;13.69;17.82
59829;BME280;45708;51.848;107.620;2023-04-25T11:10:54;93458.31;;;13.49;17.55
59829;BME280;45708;51.848;107.620;2023-04-25T11:15:56;93450.97;;;13.35;17.56
59829;BME280;45708;51.848;107.620;2023-04-25T11:20:56;93458.50;;;13.18;18.29
59829;BME280;45708;51.848;107.620;2023-04-25T11:25:57;93457.50;;;13.04;18.24
59829;BME280;45708;51.848;107.620;2023-04-25T11:30:58;93447.53;;;12.80;18.60
59829;BME280;45708;51.848;107.620;2023-04-25T11:35:59;93451.06;;;12.66;18.76
59829;BME280;45708;51.848;107.620;2023-04-25T11:41:00;93452.75;;;12.41;19.04
59829;BME280;45708;51.848;107.620;2023-04-25T11:46:01;93452.00;;;12.15;19.38
59829;BME280;45708;51.848;107.620;2023-04-25T11:51:02;93436.72;;;11.82;18.91
59829;BME280;45708;51.848;107.620;2023-04-25T11:56:09;93448.59;;;11.59;20.19
59829;BME280;45708;51.848;107.620;2023-04-25T12:01:10;93444.06;;;11.19;20.06
59829;BME280;45708;51.848;107.620;2023-04-25T12:06:16;93455.63;;;10.82;20.59
59829;BME280;45708;51.848;107.620;2023-04-25T12:11:21;93433.25;;;10.38;20.80
59829;BME280;45708;51.848;107.620;2023-04-25T12:16:22;93452.41;;;10.18;21.16
59829;BME280;45708;51.848;107.620;2023-04-25T12:21:28;93452.50;;;9.86;21.04
59829;BME280;45708;51.848;107.620;2023-04-25T12:26:49;93448.13;;;9.64;21.38
59829;BME280;45708;51.848;107.620;2023-04-25T12:31:51;93461.81;;;9.61;21.47
59829;BME280;45708;51.848;107.620;2023-04-25T12:36:52;93458.56;;;9.49;21.63
59829;BME280;45708;51.848;107.620;2023-04-25T12:41:53;93467.09;;;9.61;21.94
59829;BME280;45708;51.848;107.620;2023-04-25T12:46:54;93457.63;;;9.65;21.91
59829;BME280;45708;51.848;107.620;2023-04-25T12:51:55;93468.88;;;9.56;22.00
59829;BME280;45708;51.848;107.620;2023-04-25T12:56:56;93466.28;;;9.29;22.49
59829;BME280;45708;51.848;107.620;2023-04-25T13:01:57;93452.81;;;8.98;22.90
59829;BME280;45708;51.848;107.620;2023-04-25T13:06:57;93471.59;;;8.80;23.85
59829;BME280;45708;51.848;107.620;2023-04-25T13:11:58;93465.50;;;8.52;24.25
59829;BME280;45708;51.848;107.620;2023-04-25T13:16:59;93468.25;;;8.41;23.93
59829;BME280;45708;51.848;107.620;2023-04-25T13:22:00;93466.69;;;8.23;24.31
59829;BME280;45708;51.848;107.620;2023-04-25T13:27:01;93464.91;;;8.07;25.09
59829;BME280;45708;51.848;107.620;2023-04-25T13:32:02;93455.50;;;7.94;25.50
59829;BME280;45708;51.848;107.620;2023-04-25T13:37:02;93459.47;;;7.97;25.80
59829;BME280;45708;51.848;107.620;2023-04-25T13:42:03;93469.44;;;7.94;25.74
59829;BME280;45708;51.848;107.620;2023-04-25T13:47:04;93474.41;;;7.74;25.65
59829;BME280;45708;51.848;107.620;2023-04-25T13:52:05;93475.47;;;7.40;25.62
59829;BME280;45708;51.848;107.620;2023-04-25T13:57:06;93489.13;;;7.08;26.16
59829;BME280;45708;51.848;107.620;2023-04-25T14:02:07;93490.28;;;6.84;26.92
59829;BME280;45708;51.848;107.620;2023-04-25T14:07:08;93497.84;;;6.68;27.10
59829;BME280;45708;51.848;107.620;2023-04-25T14:12:09;93493.03;;;6.37;27.62
59829;BME280;45708;51.848;107.620;2023-04-25T14:17:10;93499.00;;;6.09;28.58
59829;BME280;45708;51.848;107.620;2023-04-25T14:22:11;93488.50;;;5.86;28.06
59829;BME280;45708;51.848;107.620;2023-04-25T14:27:12;93498.22;;;6.08;27.96
59829;BME280;45708;51.848;107.620;2023-04-25T14:32:13;93494.19;;;6.18;28.14
59829;BME280;45708;51.848;107.620;2023-04-25T14:37:14;93490.25;;;6.03;28.67
59829;BME280;45708;51.848;107.620;2023-04-25T14:42:15;93500.00;;;5.73;28.72
59829;BME280;45708;51.848;107.620;2023-04-25T14:47:16;93497.28;;;5.44;29.08
59829;BME280;45708;51.848;107.620;2023-04-25T14:52:18;93495.31;;;5.28;29.71
59829;BME280;45708;51.848;107.620;2023-04-25T14:57:19;93493.78;;;5.09;30.00
59829;BME280;45708;51.848;107.620;2023-04-25T15:02:20;93487.34;;;4.81;30.61
59829;BME280;45708;51.848;107.620;2023-04-25T15:07:21;93467.03;;;4.65;30.97
59829;BME280;45708;51.848;107.620;2023-04-25T15:12:22;93478.50;;;4.64;30.97
59829;BME280;45708;51.848;107.620;2023-04-25T15:17:23;93477.63;;;4.70;31.30
59829;BME280;45708;51.848;107.620;2023-04-25T15:22:23;93473.84;;;4.66;31.18
59829;BME280;45708;51.848;107.620;2023-04-25T15:27:24;93469.94;;;4.57;31.25
59829;BME280;45708;51.848;107.620;2023-04-25T15:32:25;93471.28;;;4.48;31.29
59829;BME280;45708;51.848;107.620;2023-04-25T15:37:26;93476.22;;;4.38;32.10
59829;BME280;45708;51.848;107.620;2023-04-25T15:42:28;93454.75;;;4.17;32.80
59829;BME280;45708;51.848;107.620;2023-04-25T15:47:29;93469.63;;;4.17;32.94
59829;BME280;45708;51.848;107.620;2023-04-25T15:52:31;93470.59;;;4.04;33.24
59829;BME280;45708;51.848;107.620;2023-04-25T15:57:35;93475.16;;;3.90;33.56
59829;BME280;45708;51.848;107.620;2023-04-25T16:02:37;93472.63;;;3.84;33.55
59829;BME280;45708;51.848;107.620;2023-04-25T16:07:39;93466.06;;;3.75;33.64
59829;BME280;45708;51.848;107.620;2023-04-25T16:12:41;93461.72;;;3.69;34.52
59829;BME280;45708;51.848;107.620;2023-04-25T16:17:42;93463.75;;;3.66;34.12
59829;BME280;45708;51.848;107.620;2023-04-25T16:22:43;93465.84;;;3.58;33.99
59829;BME280;45708;51.848;107.620;2023-04-25T16:27:43;93465.19;;;3.44;34.05
59829;BME280;45708;51.848;107.620;2023-04-25T16:32:44;93463.69;;;3.30;34.28
59829;BME280;45708;51.848;107.620;2023-04-25T16:37:45;93465.44;;;3.11;34.60
59829;BME280;45708;51.848;107.620;2023-04-25T16:42:48;93452.91;;;2.95;35.15
59829;BME280;45708;51.848;107.620;2023-04-25T16:47:48;93467.41;;;3.16;34.97
59829;BME280;45708;51.848;107.620;2023-04-25T16:52:49;93460.50;;;3.28;35.30
59829;BME280;45708;51.848;107.620;2023-04-25T16:57:50;93463.91;;;3.03;35.72
59829;BME280;45708;51.848;107.620;2023-04-25T17:02:51;93473.69;;;2.83;35.99
59829;BME280;45708;51.848;107.620;2023-04-25T17:07:52;93469.38;;;2.64;36.27
59829;BME280;45708;51.848;107.620;2023-04-25T17:12:53;93471.91;;;2.46;36.79
59829;BME280;45708;51.848;107.620;2023-04-25T17:17:54;93483.13;;;2.46;37.36
59829;BME280;45708;51.848;107.620;2023-04-25T17:22:55;93483.59;;;2.30;38.62
59829;BME280;45708;51.848;107.620;2023-04-25T17:27:55;93478.22;;;2.18;39.01
59829;BME280;45708;51.848;107.620;2023-04-25T17:32:57;93469.25;;;2.07;40.29
59829;BME280;45708;51.848;107.620;2023-04-25T17:37:59;93458.66;;;1.96;38.83
59829;BME280;45708;51.848;107.620;2023-04-25T17:43:00;93462.88;;;1.97;38.59
59829;BME280;45708;51.848;107.620;2023-04-25T17:48:01;93446.47;;;1.90;39.10
59829;BME280;45708;51.848;107.620;2023-04-25T17:53:02;93450.50;;;1.86;38.53
59829;BME280;45708;51.848;107.620;2023-04-25T17:58:02;93454.31;;;1.76;39.43
59829;BME280;45708;51.848;107.620;2023-04-25T18:03:03;93461.78;;;1.66;39.38
59829;BME280;45708;51.848;107.620;2023-04-25T18:08:04;93447.78;;;1.54;39.58
59829;BME280;45708;51.848;107.620;2023-04-25T18:13:05;93449.41;;;1.48;39.91
59829;BME280;45708;51.848;107.620;2023-04-25T18:18:06;93457.44;;;1.34;40.92
59829;BME280;45708;51.848;107.620;2023-04-25T18:23:07;93456.25;;;1.23;40.87
59829;BME280;45708;51.848;107.620;2023-04-25T18:28:08;93446.63;;;1.17;41.94
59829;BME280;45708;51.848;107.620;2023-04-25T18:33:09;93449.44;;;1.15;41.17
59829;BME280;45708;51.848;107.620;2023-04-25T18:38:09;93451.84;;;1.10;42.18
59829;BME280;45708;51.848;107.620;2023-04-25T18:43:10;93458.66;;;0.91;44.87
59829;BME280;45708;51.848;107.620;2023-04-25T18:48:11;93450.25;;;0.83;44.47
59829;BME280;45708;51.848;107.620;2023-04-25T18:53:12;93451.44;;;0.74;45.23
59829;BME280;45708;51.848;107.620;2023-04-25T18:58:12;93456.44;;;0.69;44.10
59829;BME280;45708;51.848;107.620;2023-04-25T19:03:13;93453.84;;;0.69;43.63
59829;BME280;45708;51.848;107.620;2023-04-25T19:08:14;93452.25;;;0.61;44.06
59829;BME280;45708;51.848;107.620;2023-04-25T19:13:15;93439.03;;;0.49;43.55
59829;BME280;45708;51.848;107.620;2023-04-25T19:18:15;93441.41;;;0.44;43.51
59829;BME280;45708;51.848;107.620;2023-04-25T19:23:16;93454.56;;;0.36;43.73
59829;BME280;45708;51.848;107.620;2023-04-25T19:28:17;93449.19;;;0.31;43.55
59829;BME280;45708;51.848;107.620;2023-04-25T19:33:18;93433.34;;;0.19;43.10
59829;BME280;45708;51.848;107.620;2023-04-25T19:38:19;93448.13;;;0.19;43.34
59829;BME280;45708;51.848;107.620;2023-04-25T19:43:20;93449.13;;;0.18;43.28
59829;BME280;45708;51.848;107.620;2023-04-25T19:48:21;93447.94;;;0.14;43.82
59829;BME280;45708;51.848;107.620;2023-04-25T19:53:22;93439.13;;;0.02;43.72
59829;BME280;45708;51.848;107.620;2023-04-25T19:58:22;93445.66;;;-0.03;44.50
59829;BME280;45708;51.848;107.620;2023-04-25T20:03:23;93445.84;;;-0.11;44.50
59829;BME280;45708;51.848;107.620;2023-04-25T20:08:24;93445.25;;;-0.13;44.30
59829;BME280;45708;51.848;107.620;2023-04-25T20:13:25;93450.44;;;-0.06;44.14
59829;BME280;45708;51.848;107.620;2023-04-25T20:18:26;93444.03;;;-0.17;44.19
59829;BME280;45708;51.848;107.620;2023-04-25T20:23:27;93443.19;;;-0.24;45.22
59829;BME280;45708;51.848;107.620;2023-04-25T20:28:27;93440.44;;;-0.16;44.50
59829;BME280;45708;51.848;107.620;2023-04-25T20:33:29;93447.63;;;-0.18;44.56
59829;BME280;45708;51.848;107.620;2023-04-25T20:38:30;93453.56;;;-0.24;44.49
59829;BME280;45708;51.848;107.620;2023-04-25T20:43:31;93456.94;;;-0.30;44.76
59829;BME280;45708;51.848;107.620;2023-04-25T20:48:32;93458.31;;;-0.34;45.14
59829;BME280;45708;51.848;107.620;2023-04-25T20:53:33;93451.06;;;-0.52;46.43
59829;BME280;45708;51.848;107.620;2023-04-25T20:58:36;93444.19;;;-0.66;46.15
59829;BME280;45708;51.848;107.620;2023-04-25T21:03:36;93457.72;;;-0.71;46.19
59829;BME280;45708;51.848;107.620;2023-04-25T21:08:37;93459.09;;;-0.75;45.98
59829;BME280;45708;51.848;107.620;2023-04-25T21:13:38;93472.44;;;-0.78;46.55
59829;BME280;45708;51.848;107.620;2023-04-25T21:18:39;93463.59;;;-0.83;46.91
59829;BME280;45708;51.848;107.620;2023-04-25T21:23:40;93462.44;;;-0.81;47.07
59829;BME280;45708;51.848;107.620;2023-04-25T21:28:41;93451.59;;;-0.91;47.05
59829;BME280;45708;51.848;107.620;2023-04-25T21:33:42;93462.44;;;-0.81;47.16
59829;BME280;45708;51.848;107.620;2023-04-25T21:38:43;93448.03;;;-0.90;46.78
59829;BME280;45708;51.848;107.620;2023-04-25T21:43:43;93464.78;;;-0.86;47.54
59829;BME280;45708;51.848;107.620;2023-04-25T21:48:44;93463.81;;;-0.85;48.14
59829;BME280;45708;51.848;107.620;2023-04-25T21:53:45;93476.38;;;-0.82;47.97
59829;BME280;45708;51.848;107.620;2023-04-25T21:58:46;93493.41;;;-0.73;48.39
59829;BME280;45708;51.848;107.620;2023-04-25T22:03:46;93506.91;;;-0.56;48.51
59829;BME280;45708;51.848;107.620;2023-04-25T22:08:47;93495.72;;;-0.56;48.65
59829;BME280;45708;51.848;107.620;2023-04-25T22:13:48;93517.03;;;-0.26;47.47
59829;BME280;45708;51.848;107.620;2023-04-25T22:18:50;93528.72;;;-0.03;47.08
59829;BME280;45708;51.848;107.620;2023-04-25T22:23:50;93508.84;;;0.18;46.58
59829;BME280;45708;51.848;107.620;2023-04-25T22:28:51;93526.63;;;0.88;46.15
59829;BME280;45708;51.848;107.620;2023-04-25T22:33:52;93513.44;;;1.49;44.42
59829;BME280;45708;51.848;107.620;2023-04-25T22:38:53;93511.06;;;1.08;46.13
59829;BME280;45708;51.848;107.620;2023-04-25T22:43:53;93528.72;;;3.00;42.87
59829;BME280;45708;51.848;107.620;2023-04-25T22:48:54;93525.47;;;4.22;40.49
59829;BME280;45708;51.848;107.620;2023-04-25T22:53:55;93512.34;;;5.84;38.24
59829;BME280;45708;51.848;107.620;2023-04-25T22:58:56;93521.69;;;6.95;35.51
59829;BME280;45708;51.848;107.620;2023-04-25T23:03:57;93528.56;;;7.75;34.72
59829;BME280;45708;51.848;107.620;2023-04-25T23:08:58;93532.56;;;7.94;34.43
59829;BME280;45708;51.848;107.620;2023-04-25T23:13:58;93530.44;;;8.30;34.32
59829;BME280;45708;51.848;107.620;2023-04-25T23:18:59;93531.22;;;8.91;32.65
59829;BME280;45708;51.848;107.620;2023-04-25T23:24:00;93536.38;;;9.03;31.91
59829;BME280;45708;51.848;107.620;2023-04-25T23:29:01;93522.81;;;10.07;30.73
59829;BME280;45708;51.848;107.620;2023-04-25T23:34:02;93549.66;;;9.40;31.39
59829;BME280;45708;51.848;107.620;2023-04-25T23:39:02;93566.00;;;8.93;32.24
59829;BME280;45708;51.848;107.620;2023-04-25T23:44:03;93553.16;;;10.47;30.16
59829;BME280;45708;51.848;107.620;2023-04-25T23:49:04;93549.34;;;12.64;27.86
59829;BME280;45708;51.848;107.620;2023-04-25T23:54:05;93549.97;;;13.21;26.98
59829;BME280;45708;51.848;107.620;2023-04-25T23:59:06;93570.09;;;14.15;25.52
